CDT,Max TemperatureF,Mean TemperatureF,Min TemperatureF,Max Dew PointF,MeanDew PointF,Min DewpointF,Max Humidity, Mean Humidity, Min Humidity, Max Sea Level PressureIn, Mean Sea Level PressureIn, Min Sea Level PressureIn, Max VisibilityMiles, Mean VisibilityMiles, Min VisibilityMiles, Max Wind SpeedMPH, Mean Wind SpeedMPH, Max Gust SpeedMPH,PrecipitationIn, CloudCover, Events, WindDirDegrees
2013-3-1,56,45,33,35,31,27,89,62,35,30.23,30.17,30.13,10,10,9,22,7,30,0.00,0,,303
2013-3-2,49,40,30,32,26,23,89,64,39,30.31,30.26,30.19,10,10,10,20,8,26,0.00,2,,326
2013-3-3,61,44,26,35,29,25,92,60,27,30.30,30.20,30.09,10,10,8,12,4,15,0.00,0,,155
2013-3-4,75,57,38,59,51,35,93,71,49,30.08,29.92,29.82,10,10,10,30,14,41,0.00,5,,169
2013-3-5,68,57,46,61,45,23,93,60,27,30.29,30.03,29.82,10,10,10,22,12,29,T,4,Rain,278
2013-3-6,63,49,35,31,26,22,64,42,20,30.40,30.31,30.25,10,10,5,14,6,20,0.00,0,,344
2013-3-7,64,48,32,36,32,29,89,59,28,30.37,30.29,30.24,10,10,10,9,3,25,0.00,0,,125
2013-3-8,70,52,34,46,40,34,100,66,32,30.30,30.22,30.11,10,10,7,15,4,18,0.00,0,,142
2013-3-9,72,62,52,61,55,46,87,74,61,30.12,30.01,29.90,10,10,9,22,9,29,0.00,3,,143
2013-3-10,71,59,47,63,56,37,93,81,68,30.01,29.88,29.81,10,9,2,24,9,31,0.12,7,Rain,222
2013-3-11,57,46,34,38,33,31,76,57,38,30.07,30.02,29.97,10,10,10,21,9,26,0.00,1,,315
2013-3-12,68,50,31,38,32,26,100,61,22,30.28,30.17,30.09,10,10,6,12,3,16,0.00,0,,352
2013-3-13,69,53,36,38,31,25,92,57,22,30.45,30.37,30.28,10,10,10,17,5,23,0.00,0,,8
2013-3-14,73,55,36,42,34,30,92,58,23,30.45,30.36,30.28,10,10,10,14,6,17,0.00,0,,182
2013-3-15,80,62,44,56,47,42,92,61,29,30.27,30.18,30.08,10,10,10,22,9,26,0.00,0,,199
2013-3-16,80,66,51,57,54,51,100,70,39,30.06,29.98,29.88,10,10,5,20,9,26,0.00,1,,186
2013-3-17,81,67,52,65,60,53,100,77,54,29.93,29.85,29.74,10,9,2,22,9,29,0.00,4,,160
2013-3-18,86,73,60,65,63,49,93,71,48,29.98,29.79,29.73,10,8,5,21,10,26,0.00,6,,199
2013-3-19,74,62,50,48,40,35,83,55,27,30.07,30.02,29.96,10,10,10,16,8,21,0.00,0,,61
2013-3-20,71,58,45,46,37,25,86,52,18,30.23,30.13,30.05,10,10,7,17,7,23,0.14,2,Rain,12
2013-3-21,66,54,41,42,36,32,89,62,34,30.06,29.95,29.81,10,10,10,18,9,24,0.00,3,,131
2013-3-22,80,68,55,66,59,46,93,78,62,29.83,29.76,29.68,10,10,7,14,8,18,0.00,6,Rain,135
2013-3-23,73,66,58,65,60,55,93,83,73,29.81,29.70,29.58,10,9,7,16,4,20,0.01,8,Rain-Thunderstorm,17
2013-3-24,59,49,39,55,42,29,93,64,35,30.11,29.85,29.66,10,10,10,29,15,36,T,4,Rain,320
2013-3-25,60,46,31,29,22,13,75,47,19,30.35,30.23,30.13,10,10,10,26,11,33,0.00,0,,325
2013-3-26,56,41,25,29,22,19,81,54,26,30.47,30.39,30.34,10,10,10,17,5,23,0.00,0,,331
2013-3-27,65,47,29,34,30,26,92,59,26,30.45,30.36,30.25,10,10,10,13,4,20,0.00,0,,131
2013-3-28,71,55,39,47,37,29,92,57,22,30.36,30.29,30.22,10,10,7,13,5,18,0.00,4,,150
2013-3-29,79,64,49,56,50,39,100,63,26,30.28,30.22,30.15,10,10,6,14,6,21,0.00,3,,187
2013-3-30,78,66,54,64,58,54,100,75,50,30.19,30.09,29.98,10,8,1,17,7,22,0.23,3,Rain,178
2013-3-31,72,64,55,64,59,55,100,87,73,30.03,29.96,29.86,10,7,0,40,6,58,0.89,7,Fog-Rain-Thunderstorm,216